createdAt,value
2019-04-26T00:00:52.157Z,99.90
2019-04-26T00:03:27.191Z,99.90
2019-04-26T00:05:57.760Z,99.90
2019-04-26T00:08:28.209Z,99.90
2019-04-26T00:11:03.485Z,99.90
2019-04-26T00:13:51.993Z,99.90
2019-04-26T00:16:26.497Z,99.90
2019-04-26T00:18:56.925Z,99.90
2019-04-26T00:21:27.331Z,99.90
2019-04-26T00:23:58.183Z,99.90
2019-04-26T00:26:29.299Z,99.90
2019-04-26T00:28:59.813Z,99.90
2019-04-26T00:31:30.237Z,99.90
2019-04-26T00:34:00.475Z,99.90
2019-04-26T00:36:31.005Z,99.90
2019-04-26T00:39:01.517Z,99.90
2019-04-26T00:41:32.140Z,99.90
2019-04-26T00:44:03.413Z,99.90
2019-04-26T00:46:36.149Z,99.90
2019-04-26T00:49:09.284Z,99.90
2019-04-26T00:51:40.417Z,99.90
2019-04-26T00:54:11.581Z,99.90
2019-04-26T00:56:42.320Z,99.90
2019-04-26T00:59:14.925Z,99.90
2019-04-26T01:01:46.996Z,99.90
2019-04-26T01:04:18.763Z,99.90
2019-04-26T01:06:50.723Z,99.90
2019-04-26T01:09:21.583Z,99.90
2019-04-26T01:11:52.029Z,99.90
2019-04-26T01:14:22.349Z,99.90
2019-04-26T01:16:52.712Z,99.90
2019-04-26T01:19:24.649Z,99.90
2019-04-26T01:22:00.999Z,99.90
2019-04-26T01:24:34.312Z,99.90
2019-04-26T01:27:06.442Z,99.90
2019-04-26T01:29:38.078Z,99.90
2019-04-26T01:32:11.637Z,99.90
2019-04-26T01:34:43.978Z,99.90
2019-04-26T01:37:15.151Z,99.90
2019-04-26T01:39:50.260Z,99.90
2019-04-26T01:42:26.306Z,99.90
2019-04-26T01:45:01.540Z,99.90
2019-04-26T01:47:32.796Z,99.90
2019-04-26T01:50:03.220Z,99.90
2019-04-26T01:52:33.697Z,99.90
2019-04-26T01:55:06.657Z,99.90
2019-04-26T01:57:38.113Z,99.90
2019-04-26T02:00:11.322Z,99.90
2019-04-26T02:02:55.545Z,99.90
2019-04-26T02:05:27.901Z,99.90
2019-04-26T02:07:58.431Z,99.90
2019-04-26T02:10:30.671Z,99.90
2019-04-26T02:13:01.389Z,99.90
2019-04-26T02:15:33.842Z,99.90
2019-04-26T02:18:04.684Z,99.90
2019-04-26T02:20:41.188Z,99.90
2019-04-26T02:23:13.293Z,99.90
2019-04-26T02:25:43.869Z,99.90
2019-04-26T02:28:14.430Z,99.90
2019-04-26T02:30:45.013Z,99.90
2019-04-26T02:33:16.060Z,99.90
2019-04-26T02:35:46.810Z,99.90
2019-04-26T02:38:17.148Z,99.90
2019-04-26T02:40:49.006Z,99.90
2019-04-26T02:43:22.620Z,99.90
2019-04-26T02:45:58.088Z,99.90
2019-04-26T02:48:39.076Z,99.90
2019-04-26T02:51:15.669Z,99.90
2019-04-26T02:53:55.386Z,99.90
2019-04-26T02:56:30.342Z,99.90
2019-04-26T02:59:12.940Z,99.90
2019-04-26T03:01:44.286Z,99.90
2019-04-26T03:04:15.118Z,99.90
2019-04-26T03:07:02.450Z,99.90
2019-04-26T03:09:20.323Z,99.90
2019-04-26T03:12:05.798Z,99.90
2019-04-26T03:15:12.731Z,99.90
2019-04-26T03:17:48.159Z,99.90
2019-04-26T03:20:24.595Z,99.90
2019-04-26T03:22:58.264Z,99.90
2019-04-26T03:25:56.215Z,99.90
2019-04-26T03:28:43.634Z,99.90
2019-04-26T03:31:52.947Z,99.90
2019-04-26T03:34:20.842Z,99.90
2019-04-26T03:37:20.127Z,99.90
2019-04-26T03:40:06.374Z,99.90
2019-04-26T03:42:45.778Z,99.90
2019-04-26T03:45:27.890Z,99.90
2019-04-26T03:48:24.118Z,99.90
2019-04-26T03:51:00.085Z,99.90
2019-04-26T03:53:35.575Z,99.90
2019-04-26T03:56:10.940Z,99.90
2019-04-26T03:59:04.135Z,99.90
2019-04-26T04:01:40.480Z,99.90
2019-04-26T04:04:19.795Z,99.90
2019-04-26T04:07:03.338Z,99.90
2019-04-26T04:09:25.794Z,99.90
2019-04-26T04:12:11.450Z,99.90
2019-04-26T04:14:45.017Z,99.90
2019-04-26T04:17:22.493Z,99.90
2019-04-26T04:20:16.090Z,99.90
2019-04-26T04:23:01.788Z,99.90
2019-04-26T04:25:47.809Z,99.90
2019-04-26T04:28:42.039Z,99.90
2019-04-26T04:31:21.221Z,99.90
2019-04-26T04:34:03.527Z,99.90
2019-04-26T04:36:37.113Z,99.90
2019-04-26T04:39:12.901Z,99.90
2019-04-26T04:41:57.982Z,99.90
2019-04-26T04:44:42.881Z,99.90
2019-04-26T04:47:41.360Z,99.90
2019-04-26T04:50:32.987Z,99.90
2019-04-26T04:53:15.192Z,99.90
2019-04-26T04:55:49.987Z,99.90
2019-04-26T04:58:35.346Z,99.90
2019-04-26T05:01:22.817Z,99.90
2019-04-26T05:07:07.389Z,99.90
2019-04-26T05:09:57.744Z,99.90
2019-04-26T05:12:40.345Z,99.90
2019-04-26T05:15:21.249Z,99.90
2019-04-26T05:18:00.312Z,99.90
2019-04-26T05:20:49.877Z,99.90
2019-04-26T05:23:47.101Z,99.90
2019-04-26T05:26:47.477Z,99.90
2019-04-26T05:29:40.944Z,99.90
2019-04-26T05:32:43.805Z,99.90
2019-04-26T05:35:42.361Z,99.90
2019-04-26T05:38:32.597Z,99.90
2019-04-26T05:41:42.849Z,99.90
2019-04-26T05:44:20.775Z,99.90
2019-04-26T05:47:14.125Z,99.90
2019-04-26T05:50:00.589Z,99.90
2019-04-26T05:52:53.697Z,99.90
2019-04-26T05:55:58.066Z,99.90
2019-04-26T05:58:34.273Z,99.90
2019-04-26T06:01:30.338Z,99.90
2019-04-26T06:04:29.139Z,99.90
2019-04-26T06:07:23.546Z,99.90
2019-04-26T06:10:10.265Z,99.90
2019-04-26T06:12:54.531Z,99.90
2019-04-26T06:15:38.722Z,99.90
2019-04-26T06:18:34.994Z,99.90
2019-04-26T06:21:35.077Z,99.90
2019-04-26T06:24:25.086Z,99.90
2019-04-26T06:27:38.233Z,99.90
2019-04-26T06:30:11.731Z,99.90
2019-04-26T06:33:04.759Z,99.90
2019-04-26T06:35:37.121Z,99.90
2019-04-26T06:38:15.149Z,99.90
2019-04-26T06:41:05.320Z,99.90
2019-04-26T06:43:43.465Z,99.90
2019-04-26T06:46:35.317Z,99.90
2019-04-26T06:49:09.956Z,99.90
2019-04-26T06:52:02.513Z,99.90
2019-04-26T06:54:48.334Z,99.90
2019-04-26T06:57:35.386Z,99.90
2019-04-26T07:00:10.394Z,99.90
2019-04-26T07:02:43.910Z,99.90
2019-04-26T07:05:25.855Z,99.90
2019-04-26T07:08:17.280Z,99.90
2019-04-26T07:11:12.034Z,99.90
2019-04-26T07:14:02.667Z,99.90
2019-04-26T07:16:47.853Z,99.90
2019-04-26T07:20:01.460Z,99.90
2019-04-26T07:22:58.237Z,99.90
2019-04-26T07:25:45.017Z,99.90
2019-04-26T07:28:30.364Z,99.90
2019-04-26T07:31:09.973Z,99.90
2019-04-26T07:34:00.802Z,99.90
2019-04-26T07:37:08.894Z,99.90
2019-04-26T07:40:11.529Z,99.90
2019-04-26T07:43:11.084Z,99.90
2019-04-26T07:46:19.742Z,99.90
2019-04-26T07:49:12.415Z,99.90
2019-04-26T07:52:12.667Z,99.90
2019-04-26T07:55:04.469Z,99.90
2019-04-26T07:57:43.919Z,99.90
2019-04-26T08:00:31.008Z,99.90
2019-04-26T08:03:06.980Z,99.90
2019-04-26T08:05:53.036Z,99.90
2019-04-26T08:08:26.624Z,99.90
2019-04-26T08:11:06.278Z,99.90
2019-04-26T08:13:40.854Z,99.90
2019-04-26T08:16:21.618Z,99.90
2019-04-26T08:18:59.658Z,99.90
2019-04-26T08:21:33.025Z,99.90
2019-04-26T08:24:22.288Z,99.90
2019-04-26T08:27:13.319Z,99.90
2019-04-26T08:29:39.278Z,99.90
2019-04-26T08:32:13.933Z,99.90
2019-04-26T08:34:47.593Z,99.90
2019-04-26T08:37:21.738Z,99.90
2019-04-26T08:39:55.241Z,99.90
2019-04-26T08:42:28.334Z,99.90
2019-04-26T08:45:04.441Z,99.90
2019-04-26T08:47:46.076Z,99.90
2019-04-26T08:50:25.261Z,99.90
2019-04-26T08:52:58.101Z,99.90
2019-04-26T08:55:31.321Z,99.90
2019-04-26T08:58:04.953Z,99.90
2019-04-26T09:00:46.254Z,99.90
2019-04-26T09:03:21.528Z,99.90
2019-04-26T09:05:57.993Z,99.90
2019-04-26T09:08:31.461Z,99.90
2019-04-26T09:11:03.040Z,99.90
2019-04-26T09:13:37.045Z,99.90
2019-04-26T09:16:12.804Z,99.90
2019-04-26T09:18:48.098Z,99.90
2019-04-26T09:21:19.275Z,99.90
2019-04-26T09:24:03.809Z,99.90
2019-04-26T09:26:35.938Z,99.90
2019-04-26T09:29:16.793Z,99.90
2019-04-26T09:31:50.394Z,99.90
2019-04-26T09:34:31.490Z,99.90
2019-04-26T09:37:02.018Z,99.90
2019-04-26T09:39:32.566Z,99.90
2019-04-26T09:42:10.897Z,99.90
2019-04-26T09:44:43.173Z,99.90
2019-04-26T09:47:25.089Z,99.90
2019-04-26T09:50:15.429Z,99.90
2019-04-26T09:52:53.248Z,99.90
2019-04-26T09:55:34.754Z,99.90
2019-04-26T09:57:57.125Z,99.90
2019-04-26T10:00:29.604Z,99.90
2019-04-26T10:03:00.361Z,99.90
2019-04-26T10:05:30.837Z,99.90
2019-04-26T10:08:01.232Z,99.90
2019-04-26T10:10:35.409Z,99.90
2019-04-26T10:13:05.659Z,99.90
2019-04-26T10:15:58.062Z,99.90
2019-04-26T10:18:27.713Z,99.90
2019-04-26T10:20:58.155Z,99.90
2019-04-26T10:23:28.756Z,99.90
2019-04-26T10:25:59.429Z,99.90
2019-04-26T10:28:30.029Z,99.90
2019-04-26T10:31:00.806Z,99.90
2019-04-26T10:33:32.640Z,99.90
2019-04-26T10:36:03.040Z,99.90
2019-04-26T10:38:33.521Z,99.90
2019-04-26T10:41:04.177Z,99.90
2019-04-26T10:43:34.677Z,99.90
2019-04-26T10:46:05.497Z,99.90
2019-04-26T10:48:36.215Z,99.90
2019-04-26T10:51:07.475Z,99.90
2019-04-26T10:53:43.462Z,99.90
2019-04-26T10:56:20.244Z,99.90
2019-04-26T10:58:52.658Z,99.90
2019-04-26T11:01:23.393Z,99.90
2019-04-26T11:03:53.901Z,99.90
2019-04-26T11:06:27.893Z,99.90
2019-04-26T11:08:56.761Z,99.90
2019-04-26T11:11:27.241Z,99.90
2019-04-26T11:13:57.902Z,99.90
2019-04-26T11:16:28.440Z,99.90
2019-04-26T11:19:01.191Z,99.90
2019-04-26T11:21:30.821Z,99.90
2019-04-26T11:24:01.407Z,99.90
2019-04-26T11:26:34.805Z,99.90
2019-04-26T11:29:05.073Z,99.90
2019-04-26T11:31:35.738Z,99.90
2019-04-26T11:34:06.269Z,99.90
2019-04-26T11:36:37.688Z,99.90
2019-04-26T11:39:11.169Z,99.90
2019-04-26T11:41:41.760Z,99.90
2019-04-26T11:44:12.564Z,99.90
2019-04-26T11:46:44.945Z,99.90
2019-04-26T11:49:15.387Z,99.50
2019-04-26T11:51:45.774Z,98.30
2019-04-26T11:54:17.085Z,99.00
2019-04-26T11:56:50.362Z,97.80
2019-04-26T11:59:20.937Z,97.20
2019-04-26T12:01:51.545Z,96.70
2019-04-26T12:04:23.961Z,95.30
2019-04-26T12:07:02.445Z,94.90
2019-04-26T12:09:43.432Z,94.40
2019-04-26T12:12:14.338Z,94.60
2019-04-26T12:14:45.165Z,93.50
2019-04-26T12:17:15.841Z,93.00
2019-04-26T12:19:48.133Z,92.80
2019-04-26T12:22:18.954Z,93.20
2019-04-26T12:24:49.544Z,93.00
2019-04-26T12:27:20.194Z,93.60
2019-04-26T12:29:50.717Z,92.40
2019-04-26T12:32:21.237Z,91.50
2019-04-26T12:34:51.934Z,90.60
2019-04-26T12:37:22.845Z,90.80
2019-04-26T12:39:53.553Z,88.70
2019-04-26T12:42:24.237Z,90.00
2019-04-26T12:45:02.162Z,89.90
2019-04-26T12:47:38.615Z,85.30
2019-04-26T12:50:09.885Z,87.10
2019-04-26T12:52:40.750Z,86.90
2019-04-26T12:55:13.733Z,84.80
2019-04-26T12:57:43.825Z,84.10
2019-04-26T13:00:16.595Z,83.30
2019-04-26T13:02:50.147Z,83.10
2019-04-26T13:05:20.603Z,82.50
2019-04-26T13:07:52.945Z,83.60
2019-04-26T13:10:40.113Z,82.00
2019-04-26T13:13:21.292Z,82.60
2019-04-26T13:15:56.373Z,82.50
2019-04-26T13:18:26.933Z,82.60
2019-04-26T13:20:58.575Z,83.80
2019-04-26T13:23:31.285Z,84.30
2019-04-26T13:26:02.123Z,84.00
2019-04-26T13:28:32.749Z,84.70
2019-04-26T13:31:03.387Z,85.10
2019-04-26T13:33:33.970Z,85.10
2019-04-26T13:36:05.116Z,85.50
2019-04-26T13:38:39.457Z,85.70
2019-04-26T13:41:08.277Z,84.80
2019-04-26T13:43:38.844Z,84.30
2019-04-26T13:46:27.714Z,84.90
2019-04-26T13:49:14.337Z,85.40
2019-04-26T13:51:45.797Z,84.10
2019-04-26T13:54:20.711Z,86.00
2019-04-26T13:56:48.527Z,83.70
2019-04-26T13:59:19.125Z,84.40
2019-04-26T14:01:49.645Z,83.50
2019-04-26T14:04:20.438Z,83.60
2019-04-26T14:06:51.012Z,84.00
2019-04-26T14:09:21.622Z,83.60
2019-04-26T14:11:52.213Z,83.70
2019-04-26T14:14:22.845Z,86.10
2019-04-26T14:16:55.793Z,84.60
2019-04-26T14:19:25.553Z,85.80
2019-04-26T14:21:56.276Z,83.20
2019-04-26T14:24:46.785Z,84.90
2019-04-26T14:27:18.863Z,85.10
2019-04-26T14:29:49.241Z,83.90
2019-04-26T14:32:22.876Z,83.10
2019-04-26T14:34:52.215Z,84.10
2019-04-26T14:37:22.820Z,83.40
2019-04-26T14:39:55.268Z,83.50
2019-04-26T14:42:33.736Z,83.30
2019-04-26T14:44:57.753Z,83.00
2019-04-26T14:47:30.575Z,82.20
2019-04-26T14:50:13.031Z,82.20
2019-04-26T14:52:32.560Z,81.10
2019-04-26T14:55:05.918Z,82.00
2019-04-26T14:57:36.253Z,81.50
2019-04-26T15:00:08.984Z,82.50
2019-04-26T15:02:56.009Z,81.90
2019-04-26T15:05:26.673Z,82.00
2019-04-26T15:07:57.601Z,82.50
2019-04-26T15:10:43.427Z,83.30
2019-04-26T15:13:17.169Z,82.70
2019-04-26T15:15:38.948Z,83.30
2019-04-26T15:18:09.582Z,84.50
2019-04-26T15:20:40.017Z,84.40
2019-04-26T15:23:10.417Z,84.80
2019-04-26T15:25:41.375Z,84.50
2019-04-26T15:28:14.586Z,85.00
2019-04-26T15:30:46.776Z,84.10
2019-04-26T15:33:17.403Z,84.40
2019-04-26T15:35:48.945Z,84.50
2019-04-26T15:38:19.580Z,85.40
2019-04-26T15:40:51.558Z,84.90
2019-04-26T15:43:26.336Z,84.60
2019-04-26T15:46:13.517Z,85.80
2019-04-26T15:48:50.333Z,85.90
2019-04-26T15:51:28.529Z,86.00
2019-04-26T15:53:59.117Z,86.00
2019-04-26T15:56:29.624Z,86.20
2019-04-26T15:59:00.234Z,86.40
2019-04-26T16:01:32.385Z,86.80
2019-04-26T16:04:06.276Z,87.30
2019-04-26T16:06:37.311Z,88.10
2019-04-26T16:09:09.445Z,88.20
2019-04-26T16:11:42.785Z,88.40
2019-04-26T16:14:12.436Z,89.10
2019-04-26T16:16:43.187Z,89.30
2019-04-26T16:19:13.730Z,89.70
2019-04-26T16:21:44.152Z,90.10
2019-04-26T16:24:14.997Z,90.50
2019-04-26T16:26:55.665Z,90.50
2019-04-26T16:29:25.161Z,90.60
2019-04-26T16:32:06.593Z,90.70
2019-04-26T16:34:42.942Z,91.00
2019-04-26T16:37:15.059Z,91.10
2019-04-26T16:39:48.302Z,91.30
2019-04-26T16:42:15.234Z,91.20
2019-04-26T16:44:45.730Z,91.50
2019-04-26T16:47:16.414Z,91.60
2019-04-26T16:49:46.897Z,91.70
2019-04-26T16:52:17.657Z,91.90
2019-04-26T16:54:48.217Z,92.10
2019-04-26T16:57:18.686Z,92.10
2019-04-26T16:59:54.321Z,92.30
2019-04-26T17:02:26.139Z,92.40
2019-04-26T17:04:53.429Z,92.70
2019-04-26T17:07:27.387Z,93.10
2019-04-26T17:09:59.435Z,92.90
2019-04-26T17:12:28.996Z,93.10
2019-04-26T17:15:00.057Z,93.30
2019-04-26T17:17:30.665Z,93.60
2019-04-26T17:20:02.583Z,93.50
2019-04-26T17:22:45.450Z,93.90
2019-04-26T17:25:26.870Z,94.00
2019-04-26T17:27:56.025Z,94.40
2019-04-26T17:30:26.789Z,94.60
2019-04-26T17:32:57.429Z,94.80
2019-04-26T17:35:28.089Z,95.00
2019-04-26T17:38:02.048Z,95.30
2019-04-26T17:40:36.138Z,95.20
2019-04-26T17:43:05.467Z,95.50
2019-04-26T17:45:36.306Z,95.40
2019-04-26T17:48:12.355Z,95.60
2019-04-26T17:50:40.649Z,95.80
2019-04-26T17:53:25.775Z,96.00
2019-04-26T17:55:45.860Z,96.20
2019-04-26T17:58:17.840Z,96.60
2019-04-26T18:00:48.529Z,96.90
2019-04-26T18:03:19.218Z,97.20
2019-04-26T18:05:57.268Z,97.20
2019-04-26T18:08:36.182Z,97.40
2019-04-26T18:10:54.189Z,97.80
2019-04-26T18:13:24.746Z,98.10
2019-04-26T18:15:55.540Z,98.30
2019-04-26T18:18:50.046Z,98.90
2019-04-26T18:21:36.225Z,99.20
2019-04-26T18:24:06.657Z,99.40
2019-04-26T18:26:37.375Z,99.80
2019-04-26T18:29:08.019Z,99.90
2019-04-26T18:31:38.860Z,99.90
2019-04-26T18:34:09.193Z,99.90
2019-04-26T18:36:39.511Z,99.90
2019-04-26T18:39:10.357Z,99.90
2019-04-26T18:41:40.938Z,99.90
2019-04-26T18:44:11.496Z,99.90
2019-04-26T18:46:47.275Z,99.90
2019-04-26T18:49:22.455Z,99.90
2019-04-26T18:51:50.218Z,99.90
2019-04-26T18:54:28.562Z,99.90
2019-04-26T18:57:00.537Z,99.90
2019-04-26T18:59:31.081Z,99.90
2019-04-26T19:02:01.575Z,99.90
2019-04-26T19:04:33.473Z,99.90
2019-04-26T19:07:03.958Z,99.90
2019-04-26T19:09:56.686Z,99.90
2019-04-26T19:12:07.212Z,99.90
2019-04-26T19:15:03.087Z,99.90
2019-04-26T19:17:34.553Z,99.90
2019-04-26T19:20:24.046Z,99.90
2019-04-26T19:22:56.369Z,99.90
2019-04-26T19:25:29.778Z,99.90
2019-04-26T19:28:04.528Z,99.90
2019-04-26T19:30:31.463Z,99.90
2019-04-26T19:33:02.150Z,99.90
2019-04-26T19:35:32.919Z,99.90
2019-04-26T19:38:03.455Z,99.90
2019-04-26T19:40:33.757Z,99.90
2019-04-26T19:43:07.683Z,99.90
2019-04-26T19:45:51.890Z,99.90
2019-04-26T19:48:36.460Z,99.90
2019-04-26T19:51:27.057Z,99.90
2019-04-26T19:54:04.789Z,99.90
2019-04-26T19:56:56.531Z,99.90
2019-04-26T19:59:27.497Z,99.90
2019-04-26T20:01:57.792Z,99.90
2019-04-26T20:04:30.646Z,99.90
2019-04-26T20:07:01.369Z,99.90
2019-04-26T20:09:31.988Z,99.90
2019-04-26T20:12:02.688Z,99.90
2019-04-26T20:14:44.747Z,99.90
2019-04-26T20:17:05.301Z,99.90
2019-04-26T20:19:37.577Z,99.90
2019-04-26T20:22:08.096Z,99.90
2019-04-26T20:24:38.441Z,99.90
2019-04-26T20:27:08.738Z,99.90
2019-04-26T20:29:40.689Z,99.90
2019-04-26T20:32:29.143Z,99.90
2019-04-26T20:35:04.345Z,99.90
2019-04-26T20:37:34.649Z,99.90
2019-04-26T20:40:20.358Z,99.90
2019-04-26T20:42:42.230Z,99.90
2019-04-26T20:45:16.718Z,99.90
2019-04-26T20:47:46.817Z,99.90
2019-04-26T20:50:17.829Z,99.90
2019-04-26T20:52:48.264Z,99.90
2019-04-26T20:55:22.709Z,99.90
2019-04-26T20:57:51.972Z,99.90
2019-04-26T21:00:22.600Z,99.90
2019-04-26T21:02:54.169Z,99.90
2019-04-26T21:05:25.017Z,99.90
2019-04-26T21:07:55.405Z,99.90
2019-04-26T21:10:25.972Z,99.90
2019-04-26T21:12:56.237Z,99.90
2019-04-26T21:15:26.813Z,99.90
2019-04-26T21:18:02.795Z,99.90
2019-04-26T21:20:32.657Z,99.90
2019-04-26T21:23:02.409Z,99.90
2019-04-26T21:25:49.857Z,99.90
2019-04-26T21:28:24.757Z,99.90
2019-04-26T21:30:56.689Z,99.90
2019-04-26T21:33:32.729Z,99.90
2019-04-26T21:36:18.577Z,99.90
2019-04-26T21:39:04.124Z,99.90
2019-04-26T21:41:40.292Z,99.90
2019-04-26T21:44:12.281Z,99.90
2019-04-26T21:46:40.792Z,99.90
2019-04-26T21:49:13.597Z,99.90
2019-04-26T21:51:44.693Z,99.90
2019-04-26T21:54:18.002Z,99.90
2019-04-26T21:56:49.646Z,99.90
2019-04-26T21:59:19.378Z,99.90
2019-04-26T22:01:52.328Z,99.90
2019-04-26T22:04:22.718Z,99.90
2019-04-26T22:06:55.675Z,99.90
2019-04-26T22:09:35.050Z,99.90
2019-04-26T22:12:03.639Z,99.90
2019-04-26T22:14:35.621Z,99.90
2019-04-26T22:17:13.593Z,99.90
2019-04-26T22:19:54.724Z,99.90
2019-04-26T22:22:29.385Z,99.90
2019-04-26T22:25:04.130Z,99.90
2019-04-26T22:27:34.676Z,99.90
2019-04-26T22:30:08.191Z,99.90
2019-04-26T22:32:38.614Z,99.90
2019-04-26T22:35:09.256Z,99.90
2019-04-26T22:37:41.436Z,99.90
2019-04-26T22:40:17.259Z,99.90
2019-04-26T22:42:45.480Z,99.90
2019-04-26T22:45:17.797Z,99.90
2019-04-26T22:47:53.615Z,99.90
2019-04-26T22:50:25.064Z,99.90
2019-04-26T22:52:55.550Z,99.90
2019-04-26T22:55:27.557Z,99.90
2019-04-26T22:57:58.213Z,99.90
2019-04-26T23:00:30.221Z,99.90
2019-04-26T23:03:03.664Z,99.90
2019-04-26T23:05:35.572Z,99.90
2019-04-26T23:08:06.386Z,99.90
2019-04-26T23:10:38.325Z,99.90
2019-04-26T23:13:16.381Z,99.90
2019-04-26T23:16:08.276Z,99.90
2019-04-26T23:18:53.817Z,99.90
2019-04-26T23:21:28.940Z,99.90
2019-04-26T23:23:59.269Z,99.90
2019-04-26T23:26:29.730Z,99.90
2019-04-26T23:29:00.241Z,99.90
2019-04-26T23:31:30.729Z,99.90
2019-04-26T23:34:00.924Z,99.90
2019-04-26T23:36:31.209Z,99.90
2019-04-26T23:39:03.409Z,99.90
2019-04-26T23:41:37.570Z,99.90
2019-04-26T23:44:06.791Z,99.90
2019-04-26T23:46:37.448Z,99.90
2019-04-26T23:49:07.749Z,99.90
2019-04-26T23:51:42.042Z,99.90
2019-04-26T23:54:10.357Z,99.90
2019-04-26T23:56:40.852Z,99.90
2019-04-26T23:59:14.994Z,99.90
